sensor_id;sensor_type;location;lat;lon;timestamp;pressure;altitude;pressure_sealevel;temperature;humidity
12991;BME280;6560;57.692;11.958;2022-12-07T00:01:20;100765.13;;;6.01;100.00
12991;BME280;6560;57.692;11.958;2022-12-07T00:03:47;100847.50;;;6.23;100.00
12991;BME280;6560;57.692;11.958;2022-12-07T00:06:15;100630.16;;;4.56;100.00
12991;BME280;6560;57.692;11.958;2022-12-07T00:08:41;100778.81;;;5.16;100.00
12991;BME280;6560;57.692;11.958;2022-12-07T00:11:15;100834.56;;;5.70;100.00
12991;BME280;6560;57.692;11.958;2022-12-07T00:13:42;100838.59;;;5.94;100.00
12991;BME280;6560;57.692;11.958;2022-12-07T00:16:10;100826.25;;;6.20;100.00
12991;BME280;6560;57.692;11.958;2022-12-07T00:18:37;100842.63;;;5.82;100.00
12991;BME280;6560;57.692;11.958;2022-12-07T00:21:09;100794.22;;;5.77;100.00
12991;BME280;6560;57.692;11.958;2022-12-07T00:23:36;100834.31;;;6.32;100.00
12991;BME280;6560;57.692;11.958;2022-12-07T00:26:06;100829.28;;;6.25;100.00
12991;BME280;6560;57.692;11.958;2022-12-07T00:28:32;100817.94;;;6.72;100.00
12991;BME280;6560;57.692;11.958;2022-12-07T00:33:28;100783.66;;;6.79;100.00
12991;BME280;6560;57.692;11.958;2022-12-07T00:35:58;100828.53;;;6.26;100.00
12991;BME280;6560;57.692;11.958;2022-12-07T00:38:24;100825.06;;;6.17;100.00
12991;BME280;6560;57.692;11.958;2022-12-07T00:41:01;100830.75;;;5.94;100.00
12991;BME280;6560;57.692;11.958;2022-12-07T00:43:27;100831.06;;;6.16;100.00
12991;BME280;6560;57.692;11.958;2022-12-07T00:45:54;100832.16;;;6.36;100.00
12991;BME280;6560;57.692;11.958;2022-12-07T00:48:25;100794.81;;;5.47;100.00
12991;BME280;6560;57.692;11.958;2022-12-07T00:50:51;100827.28;;;5.76;100.00
12991;BME280;6560;57.692;11.958;2022-12-07T00:53:17;100765.50;;;5.32;100.00
12991;BME280;6560;57.692;11.958;2022-12-07T00:55:43;100819.72;;;5.88;100.00
12991;BME280;6560;57.692;11.958;2022-12-07T00:58:09;100824.53;;;6.02;100.00
12991;BME280;6560;57.692;11.958;2022-12-07T01:00:36;100813.16;;;6.20;100.00
12991;BME280;6560;57.692;11.958;2022-12-07T01:03:04;100813.31;;;6.22;100.00
12991;BME280;6560;57.692;11.958;2022-12-07T01:05:29;100806.94;;;6.28;100.00
12991;BME280;6560;57.692;11.958;2022-12-07T01:07:55;100802.50;;;6.27;100.00
12991;BME280;6560;57.692;11.958;2022-12-07T01:10:20;100778.78;;;6.07;100.00
12991;BME280;6560;57.692;11.958;2022-12-07T01:12:46;100799.38;;;6.13;100.00
12991;BME280;6560;57.692;11.958;2022-12-07T01:15:11;100757.97;;;6.27;100.00
12991;BME280;6560;57.692;11.958;2022-12-07T01:17:37;100793.63;;;6.83;100.00
12991;BME280;6560;57.692;11.958;2022-12-07T01:20:03;100794.97;;;6.59;100.00
12991;BME280;6560;57.692;11.958;2022-12-07T01:22:29;100798.19;;;6.09;100.00
12991;BME280;6560;57.692;11.958;2022-12-07T01:24:54;100718.66;;;4.98;100.00
12991;BME280;6560;57.692;11.958;2022-12-07T01:27:20;100799.31;;;5.39;100.00
12991;BME280;6560;57.692;11.958;2022-12-07T01:29:46;100713.59;;;4.91;100.00
12991;BME280;6560;57.692;11.958;2022-12-07T01:32:12;100778.44;;;4.86;100.00
12991;BME280;6560;57.692;11.958;2022-12-07T01:34:38;100791.59;;;5.77;100.00
12991;BME280;6560;57.692;11.958;2022-12-07T01:37:03;100761.91;;;5.76;100.00
12991;BME280;6560;57.692;11.958;2022-12-07T01:39:29;100727.69;;;5.83;100.00
12991;BME280;6560;57.692;11.958;2022-12-07T01:41:55;100763.84;;;6.25;100.00
12991;BME280;6560;57.692;11.958;2022-12-07T01:44:30;100733.78;;;6.11;100.00
12991;BME280;6560;57.692;11.958;2022-12-07T01:47:03;100756.78;;;6.05;100.00
12991;BME280;6560;57.692;11.958;2022-12-07T01:49:31;100770.94;;;6.07;100.00
12991;BME280;6560;57.692;11.958;2022-12-07T01:52:10;100766.47;;;6.06;100.00
12991;BME280;6560;57.692;11.958;2022-12-07T01:54:38;100738.22;;;5.47;100.00
12991;BME280;6560;57.692;11.958;2022-12-07T01:57:06;100729.09;;;6.17;100.00
12991;BME280;6560;57.692;11.958;2022-12-07T01:59:33;100759.72;;;6.37;100.00
12991;BME280;6560;57.692;11.958;2022-12-07T02:02:00;100769.44;;;6.38;100.00
12991;BME280;6560;57.692;11.958;2022-12-07T02:04:27;100765.06;;;6.28;100.00
12991;BME280;6560;57.692;11.958;2022-12-07T02:06:54;100763.28;;;6.19;100.00
12991;BME280;6560;57.692;11.958;2022-12-07T02:09:20;100756.66;;;5.76;100.00
12991;BME280;6560;57.692;11.958;2022-12-07T02:11:46;100761.75;;;6.02;100.00
12991;BME280;6560;57.692;11.958;2022-12-07T02:14:11;100751.81;;;6.74;100.00
12991;BME280;6560;57.692;11.958;2022-12-07T02:16:46;100764.06;;;6.36;100.00
12991;BME280;6560;57.692;11.958;2022-12-07T02:25:22;100749.69;;;6.42;100.00
12991;BME280;6560;57.692;11.958;2022-12-07T02:30:27;100746.38;;;6.15;100.00
12991;BME280;6560;57.692;11.958;2022-12-07T02:33:18;100748.25;;;6.16;100.00
12991;BME280;6560;57.692;11.958;2022-12-07T02:36:27;100745.75;;;6.65;100.00
12991;BME280;6560;57.692;11.958;2022-12-07T02:39:11;100758.97;;;6.19;100.00
12991;BME280;6560;57.692;11.958;2022-12-07T02:41:43;100716.13;;;6.37;100.00
12991;BME280;6560;57.692;11.958;2022-12-07T02:44:15;100674.16;;;5.80;100.00
12991;BME280;6560;57.692;11.958;2022-12-07T02:46:49;100631.22;;;6.15;100.00
12991;BME280;6560;57.692;11.958;2022-12-07T02:49:16;100574.59;;;5.31;100.00
12991;BME280;6560;57.692;11.958;2022-12-07T02:51:44;100647.19;;;5.25;100.00
12991;BME280;6560;57.692;11.958;2022-12-07T02:54:17;100732.66;;;5.72;100.00
12991;BME280;6560;57.692;11.958;2022-12-07T02:59:21;100720.16;;;5.78;100.00
12991;BME280;6560;57.692;11.958;2022-12-07T03:07:37;100711.03;;;6.10;100.00
12991;BME280;6560;57.692;11.958;2022-12-07T03:18:07;100668.00;;;5.60;100.00
12991;BME280;6560;57.692;11.958;2022-12-07T03:20:36;100669.38;;;6.03;100.00
12991;BME280;6560;57.692;11.958;2022-12-07T03:23:07;100675.84;;;5.98;100.00
12991;BME280;6560;57.692;11.958;2022-12-07T03:25:40;100618.66;;;5.74;100.00
12991;BME280;6560;57.692;11.958;2022-12-07T03:28:08;100437.22;;;4.68;100.00
12991;BME280;6560;57.692;11.958;2022-12-07T03:30:49;100530.56;;;5.83;100.00
12991;BME280;6560;57.692;11.958;2022-12-07T03:33:29;100690.34;;;5.76;100.00
12991;BME280;6560;57.692;11.958;2022-12-07T03:38:55;100629.69;;;5.98;100.00
12991;BME280;6560;57.692;11.958;2022-12-07T03:41:25;100696.19;;;6.48;100.00
12991;BME280;6560;57.692;11.958;2022-12-07T03:43:54;100712.03;;;6.31;100.00
12991;BME280;6560;57.692;11.958;2022-12-07T03:46:34;100542.78;;;5.92;100.00
12991;BME280;6560;57.692;11.958;2022-12-07T03:49:12;100685.88;;;6.60;100.00
12991;BME280;6560;57.692;11.958;2022-12-07T03:56:58;100637.34;;;6.45;100.00
12991;BME280;6560;57.692;11.958;2022-12-07T03:59:24;100642.78;;;6.56;100.00
12991;BME280;6560;57.692;11.958;2022-12-07T04:02:01;100635.88;;;6.28;100.00
12991;BME280;6560;57.692;11.958;2022-12-07T04:04:27;100638.34;;;6.26;100.00
12991;BME280;6560;57.692;11.958;2022-12-07T04:06:53;100689.88;;;6.75;100.00
12991;BME280;6560;57.692;11.958;2022-12-07T04:09:19;100548.78;;;5.91;100.00
12991;BME280;6560;57.692;11.958;2022-12-07T04:11:45;100680.72;;;6.90;100.00
12991;BME280;6560;57.692;11.958;2022-12-07T04:14:10;100521.69;;;5.62;100.00
12991;BME280;6560;57.692;11.958;2022-12-07T04:16:46;100649.50;;;6.34;100.00
12991;BME280;6560;57.692;11.958;2022-12-07T04:19:12;100579.81;;;5.78;100.00
12991;BME280;6560;57.692;11.958;2022-12-07T04:21:38;100712.53;;;6.85;100.00
12991;BME280;6560;57.692;11.958;2022-12-07T04:24:04;100666.28;;;6.75;100.00
12991;BME280;6560;57.692;11.958;2022-12-07T04:26:30;100671.59;;;6.95;100.00
12991;BME280;6560;57.692;11.958;2022-12-07T04:28:56;100674.44;;;6.49;100.00
12991;BME280;6560;57.692;11.958;2022-12-07T04:31:22;100386.31;;;5.10;100.00
12991;BME280;6560;57.692;11.958;2022-12-07T04:33:47;100632.28;;;7.05;100.00
12991;BME280;6560;57.692;11.958;2022-12-07T04:36:13;100659.94;;;7.93;100.00
12991;BME280;6560;57.692;11.958;2022-12-07T04:38:38;100575.50;;;6.86;100.00
12991;BME280;6560;57.692;11.958;2022-12-07T04:41:08;100691.03;;;6.68;100.00
12991;BME280;6560;57.692;11.958;2022-12-07T04:43:34;100669.16;;;6.68;100.00
12991;BME280;6560;57.692;11.958;2022-12-07T04:46:00;100490.44;;;6.21;100.00
12991;BME280;6560;57.692;11.958;2022-12-07T04:48:26;100617.47;;;7.06;100.00
12991;BME280;6560;57.692;11.958;2022-12-07T04:50:52;100642.41;;;8.14;100.00
12991;BME280;6560;57.692;11.958;2022-12-07T04:53:17;100495.75;;;6.03;100.00
12991;BME280;6560;57.692;11.958;2022-12-07T04:55:44;100690.72;;;6.55;100.00
12991;BME280;6560;57.692;11.958;2022-12-07T04:58:10;100668.38;;;6.40;100.00
12991;BME280;6560;57.692;11.958;2022-12-07T05:00:35;100581.03;;;7.91;100.00
12991;BME280;6560;57.692;11.958;2022-12-07T05:03:01;100643.22;;;8.13;100.00
12991;BME280;6560;57.692;11.958;2022-12-07T05:05:26;100618.94;;;7.95;100.00
12991;BME280;6560;57.692;11.958;2022-12-07T05:07:52;100649.09;;;8.10;100.00
12991;BME280;6560;57.692;11.958;2022-12-07T05:10:18;100619.31;;;7.17;100.00
12991;BME280;6560;57.692;11.958;2022-12-07T05:12:43;100570.06;;;7.75;100.00
12991;BME280;6560;57.692;11.958;2022-12-07T05:15:09;100643.97;;;8.32;100.00
12991;BME280;6560;57.692;11.958;2022-12-07T05:17:35;100643.13;;;8.43;100.00
12991;BME280;6560;57.692;11.958;2022-12-07T05:20:00;100657.31;;;7.12;100.00
12991;BME280;6560;57.692;11.958;2022-12-07T05:22:26;100540.22;;;6.52;100.00
12991;BME280;6560;57.692;11.958;2022-12-07T05:24:54;100656.53;;;6.54;100.00
12991;BME280;6560;57.692;11.958;2022-12-07T05:27:19;100651.50;;;6.47;100.00
12991;BME280;6560;57.692;11.958;2022-12-07T05:29:45;100628.69;;;6.35;100.00
12991;BME280;6560;57.692;11.958;2022-12-07T05:32:11;100626.84;;;6.34;100.00
12991;BME280;6560;57.692;11.958;2022-12-07T05:34:36;100619.84;;;6.15;100.00
12991;BME280;6560;57.692;11.958;2022-12-07T05:37:02;100555.19;;;5.66;100.00
12991;BME280;6560;57.692;11.958;2022-12-07T05:39:27;100498.97;;;5.71;100.00
12991;BME280;6560;57.692;11.958;2022-12-07T05:41:53;100653.53;;;6.59;100.00
12991;BME280;6560;57.692;11.958;2022-12-07T05:44:37;100641.66;;;6.83;100.00
12991;BME280;6560;57.692;11.958;2022-12-07T05:47:03;100548.25;;;6.14;100.00
12991;BME280;6560;57.692;11.958;2022-12-07T05:49:29;100645.00;;;7.21;100.00
12991;BME280;6560;57.692;11.958;2022-12-07T05:51:55;100635.97;;;7.07;100.00
12991;BME280;6560;57.692;11.958;2022-12-07T05:54:20;100635.97;;;7.07;100.00
12991;BME280;6560;57.692;11.958;2022-12-07T05:56:46;100654.69;;;7.02;100.00
12991;BME280;6560;57.692;11.958;2022-12-07T05:59:11;100626.66;;;8.14;100.00
12991;BME280;6560;57.692;11.958;2022-12-07T06:01:57;100634.78;;;8.80;100.00
12991;BME280;6560;57.692;11.958;2022-12-07T06:04:24;100636.78;;;8.51;100.00
12991;BME280;6560;57.692;11.958;2022-12-07T06:06:51;100604.25;;;7.97;100.00
12991;BME280;6560;57.692;11.958;2022-12-07T06:09:17;100538.59;;;8.07;100.00
12991;BME280;6560;57.692;11.958;2022-12-07T06:11:43;100632.09;;;8.91;100.00
12991;BME280;6560;57.692;11.958;2022-12-07T06:14:27;100486.28;;;8.42;100.00
12991;BME280;6560;57.692;11.958;2022-12-07T06:16:53;100580.81;;;9.52;100.00
12991;BME280;6560;57.692;11.958;2022-12-07T06:19:19;100635.59;;;9.13;100.00
12991;BME280;6560;57.692;11.958;2022-12-07T06:21:44;100627.19;;;8.73;100.00
12991;BME280;6560;57.692;11.958;2022-12-07T06:24:14;100648.41;;;8.87;100.00
12991;BME280;6560;57.692;11.958;2022-12-07T06:26:40;100637.84;;;8.01;100.00
12991;BME280;6560;57.692;11.958;2022-12-07T06:29:06;100497.13;;;7.09;100.00
12991;BME280;6560;57.692;11.958;2022-12-07T06:31:32;100516.66;;;7.02;100.00
12991;BME280;6560;57.692;11.958;2022-12-07T06:34:02;100643.66;;;7.77;100.00
12991;BME280;6560;57.692;11.958;2022-12-07T06:36:28;100634.31;;;6.79;100.00
12991;BME280;6560;57.692;11.958;2022-12-07T06:38:54;100492.16;;;6.41;100.00
12991;BME280;6560;57.692;11.958;2022-12-07T06:41:20;100641.72;;;7.44;100.00
12991;BME280;6560;57.692;11.958;2022-12-07T06:43:46;100535.81;;;6.81;100.00
12991;BME280;6560;57.692;11.958;2022-12-07T06:46:12;100565.09;;;6.57;100.00
12991;BME280;6560;57.692;11.958;2022-12-07T06:48:38;100587.06;;;7.18;100.00
12991;BME280;6560;57.692;11.958;2022-12-07T06:51:04;100546.41;;;6.72;100.00
12991;BME280;6560;57.692;11.958;2022-12-07T06:53:29;100601.69;;;6.65;100.00
12991;BME280;6560;57.692;11.958;2022-12-07T06:55:55;100649.44;;;7.22;100.00
12991;BME280;6560;57.692;11.958;2022-12-07T06:58:21;100648.28;;;7.18;100.00
12991;BME280;6560;57.692;11.958;2022-12-07T07:00:48;100560.72;;;5.98;100.00
12991;BME280;6560;57.692;11.958;2022-12-07T07:03:13;100581.81;;;6.38;100.00
12991;BME280;6560;57.692;11.958;2022-12-07T07:05:39;100572.56;;;6.52;100.00
12991;BME280;6560;57.692;11.958;2022-12-07T07:08:04;100601.84;;;6.97;100.00
12991;BME280;6560;57.692;11.958;2022-12-07T07:10:30;100555.75;;;6.89;100.00
12991;BME280;6560;57.692;11.958;2022-12-07T07:12:56;100586.28;;;6.99;100.00
12991;BME280;6560;57.692;11.958;2022-12-07T07:15:21;100641.72;;;7.13;100.00
12991;BME280;6560;57.692;11.958;2022-12-07T07:17:47;100605.59;;;6.70;100.00
12991;BME280;6560;57.692;11.958;2022-12-07T07:20:13;100660.19;;;6.95;100.00
12991;BME280;6560;57.692;11.958;2022-12-07T07:22:39;100661.38;;;7.29;100.00
12991;BME280;6560;57.692;11.958;2022-12-07T07:25:05;100658.09;;;7.11;100.00
12991;BME280;6560;57.692;11.958;2022-12-07T07:27:31;100659.03;;;7.32;100.00
12991;BME280;6560;57.692;11.958;2022-12-07T07:29:56;100659.78;;;7.81;100.00
12991;BME280;6560;57.692;11.958;2022-12-07T07:32:22;100565.38;;;8.03;100.00
12991;BME280;6560;57.692;11.958;2022-12-07T07:34:48;100603.47;;;9.05;100.00
12991;BME280;6560;57.692;11.958;2022-12-07T07:37:13;100644.19;;;8.67;100.00
12991;BME280;6560;57.692;11.958;2022-12-07T07:39:39;100643.66;;;9.59;100.00
12991;BME280;6560;57.692;11.958;2022-12-07T07:42:05;100656.13;;;8.42;100.00
12991;BME280;6560;57.692;11.958;2022-12-07T07:44:33;100582.25;;;8.17;100.00
12991;BME280;6560;57.692;11.958;2022-12-07T07:46:58;100654.72;;;8.15;100.00
12991;BME280;6560;57.692;11.958;2022-12-07T07:49:24;100656.47;;;9.00;100.00
12991;BME280;6560;57.692;11.958;2022-12-07T07:51:50;100611.50;;;7.89;100.00
12991;BME280;6560;57.692;11.958;2022-12-07T07:54:16;100610.91;;;8.14;100.00
12991;BME280;6560;57.692;11.958;2022-12-07T07:56:41;100592.78;;;7.65;100.00
12991;BME280;6560;57.692;11.958;2022-12-07T07:59:07;100616.38;;;8.27;100.00
12991;BME280;6560;57.692;11.958;2022-12-07T08:01:33;100667.09;;;8.79;100.00
12991;BME280;6560;57.692;11.958;2022-12-07T08:03:59;100611.69;;;8.13;100.00
12991;BME280;6560;57.692;11.958;2022-12-07T08:06:24;100671.88;;;8.52;100.00
12991;BME280;6560;57.692;11.958;2022-12-07T08:08:50;100619.94;;;8.59;100.00
12991;BME280;6560;57.692;11.958;2022-12-07T08:11:16;100584.09;;;7.86;100.00
12991;BME280;6560;57.692;11.958;2022-12-07T08:13:41;100633.44;;;8.86;100.00
12991;BME280;6560;57.692;11.958;2022-12-07T08:16:09;100652.22;;;8.26;100.00
12991;BME280;6560;57.692;11.958;2022-12-07T08:18:39;100663.25;;;8.64;100.00
12991;BME280;6560;57.692;11.958;2022-12-07T08:21:06;100622.69;;;8.19;100.00
12991;BME280;6560;57.692;11.958;2022-12-07T08:23:32;100593.34;;;7.40;100.00
12991;BME280;6560;57.692;11.958;2022-12-07T08:26:03;100615.81;;;7.89;100.00
12991;BME280;6560;57.692;11.958;2022-12-07T08:28:33;100615.03;;;8.64;100.00
12991;BME280;6560;57.692;11.958;2022-12-07T08:31:13;100659.81;;;7.71;100.00
12991;BME280;6560;57.692;11.958;2022-12-07T08:33:39;100669.94;;;7.67;100.00
12991;BME280;6560;57.692;11.958;2022-12-07T08:36:12;100671.63;;;7.26;100.00
12991;BME280;6560;57.692;11.958;2022-12-07T08:38:39;100661.25;;;7.57;100.00
12991;BME280;6560;57.692;11.958;2022-12-07T08:41:06;100616.19;;;7.41;100.00
12991;BME280;6560;57.692;11.958;2022-12-07T08:43:32;100647.47;;;7.09;100.00
12991;BME280;6560;57.692;11.958;2022-12-07T08:46:12;100672.94;;;7.51;100.00
12991;BME280;6560;57.692;11.958;2022-12-07T08:51:13;100614.69;;;7.04;100.00
12991;BME280;6560;57.692;11.958;2022-12-07T08:53:39;100654.16;;;7.16;100.00
12991;BME280;6560;57.692;11.958;2022-12-07T08:56:05;100604.97;;;6.73;100.00
12991;BME280;6560;57.692;11.958;2022-12-07T08:58:33;100660.59;;;7.30;100.00
12991;BME280;6560;57.692;11.958;2022-12-07T09:00:59;100613.53;;;7.31;100.00
12991;BME280;6560;57.692;11.958;2022-12-07T09:03:24;100648.00;;;7.36;100.00
12991;BME280;6560;57.692;11.958;2022-12-07T09:05:50;100675.56;;;7.41;100.00
12991;BME280;6560;57.692;11.958;2022-12-07T09:08:17;100682.78;;;7.33;100.00
12991;BME280;6560;57.692;11.958;2022-12-07T09:10:43;100675.91;;;7.05;100.00
12991;BME280;6560;57.692;11.958;2022-12-07T09:13:08;100497.97;;;5.50;100.00
12991;BME280;6560;57.692;11.958;2022-12-07T09:15:34;100639.00;;;6.63;100.00
12991;BME280;6560;57.692;11.958;2022-12-07T09:17:59;100644.03;;;6.80;100.00
12991;BME280;6560;57.692;11.958;2022-12-07T09:20:25;100651.44;;;6.55;100.00
12991;BME280;6560;57.692;11.958;2022-12-07T09:22:50;100615.09;;;7.09;100.00
12991;BME280;6560;57.692;11.958;2022-12-07T09:25:16;100630.44;;;6.94;100.00
12991;BME280;6560;57.692;11.958;2022-12-07T09:27:41;100675.41;;;7.70;100.00
12991;BME280;6560;57.692;11.958;2022-12-07T09:30:07;100599.22;;;6.97;100.00
12991;BME280;6560;57.692;11.958;2022-12-07T09:32:33;100661.88;;;7.04;100.00
12991;BME280;6560;57.692;11.958;2022-12-07T09:34:58;100672.94;;;7.51;100.00
12991;BME280;6560;57.692;11.958;2022-12-07T09:37:31;100651.19;;;7.52;100.00
12991;BME280;6560;57.692;11.958;2022-12-07T09:40:00;100670.53;;;8.05;100.00
12991;BME280;6560;57.692;11.958;2022-12-07T09:42:33;100657.59;;;7.45;100.00
12991;BME280;6560;57.692;11.958;2022-12-07T09:44:59;100610.66;;;7.08;100.00
12991;BME280;6560;57.692;11.958;2022-12-07T09:47:27;100629.78;;;7.37;100.00
12991;BME280;6560;57.692;11.958;2022-12-07T09:49:57;100638.97;;;7.42;100.00
12991;BME280;6560;57.692;11.958;2022-12-07T09:52:28;100638.97;;;7.73;100.00
12991;BME280;6560;57.692;11.958;2022-12-07T09:54:54;100666.00;;;8.24;100.00
12991;BME280;6560;57.692;11.958;2022-12-07T09:57:29;100671.47;;;7.85;100.00
12991;BME280;6560;57.692;11.958;2022-12-07T10:00:00;100660.75;;;7.72;100.00
12991;BME280;6560;57.692;11.958;2022-12-07T10:04:59;100648.13;;;8.40;100.00
12991;BME280;6560;57.692;11.958;2022-12-07T10:07:30;100603.00;;;7.61;100.00
12991;BME280;6560;57.692;11.958;2022-12-07T10:09:56;100656.66;;;7.55;100.00
12991;BME280;6560;57.692;11.958;2022-12-07T10:12:22;100635.81;;;7.56;100.00
12991;BME280;6560;57.692;11.958;2022-12-07T10:14:56;100596.34;;;7.04;100.00
12991;BME280;6560;57.692;11.958;2022-12-07T10:17:29;100566.59;;;7.54;100.00
12991;BME280;6560;57.692;11.958;2022-12-07T10:20:26;100665.22;;;8.15;100.00
12991;BME280;6560;57.692;11.958;2022-12-07T10:23:04;100655.25;;;8.31;100.00
12991;BME280;6560;57.692;11.958;2022-12-07T10:25:35;100661.81;;;8.16;100.00
12991;BME280;6560;57.692;11.958;2022-12-07T10:30:33;100656.47;;;8.04;100.00
12991;BME280;6560;57.692;11.958;2022-12-07T10:32:59;100648.03;;;8.18;100.00
12991;BME280;6560;57.692;11.958;2022-12-07T10:35:29;100664.13;;;7.30;100.00
12991;BME280;6560;57.692;11.958;2022-12-07T10:37:58;100656.16;;;7.18;100.00
12991;BME280;6560;57.692;11.958;2022-12-07T10:40:28;100657.75;;;7.47;100.00
12991;BME280;6560;57.692;11.958;2022-12-07T10:45:27;100667.44;;;7.38;100.00
12991;BME280;6560;57.692;11.958;2022-12-07T11:12:24;100640.66;;;7.01;100.00
12991;BME280;6560;57.692;11.958;2022-12-07T11:18:13;100649.06;;;7.58;100.00
12991;BME280;6560;57.692;11.958;2022-12-07T11:29:28;100646.13;;;6.45;100.00
12991;BME280;6560;57.692;11.958;2022-12-07T11:32:07;100647.31;;;6.98;100.00
12991;BME280;6560;57.692;11.958;2022-12-07T11:37:30;100644.66;;;6.67;100.00
12991;BME280;6560;57.692;11.958;2022-12-07T11:40:03;100662.81;;;6.56;100.00
12991;BME280;6560;57.692;11.958;2022-12-07T11:42:41;100580.50;;;6.05;100.00
12991;BME280;6560;57.692;11.958;2022-12-07T11:45:27;100652.97;;;6.24;100.00
12991;BME280;6560;57.692;11.958;2022-12-07T11:48:04;100647.03;;;6.35;100.00
12991;BME280;6560;57.692;11.958;2022-12-07T11:50:36;100649.03;;;6.19;100.00
12991;BME280;6560;57.692;11.958;2022-12-07T11:53:14;100650.09;;;5.65;100.00
12991;BME280;6560;57.692;11.958;2022-12-07T11:56:08;100541.59;;;5.04;100.00
12991;BME280;6560;57.692;11.958;2022-12-07T11:58:50;100649.66;;;5.88;100.00
12991;BME280;6560;57.692;11.958;2022-12-07T12:06:32;100564.59;;;5.08;100.00
12991;BME280;6560;57.692;11.958;2022-12-07T12:09:17;100643.53;;;5.41;100.00
12991;BME280;6560;57.692;11.958;2022-12-07T12:18:14;100641.78;;;5.69;100.00
12991;BME280;6560;57.692;11.958;2022-12-07T12:33:52;100536.00;;;5.94;100.00
12991;BME280;6560;57.692;11.958;2022-12-07T12:44:02;100629.69;;;5.98;100.00
12991;BME280;6560;57.692;11.958;2022-12-07T12:49:30;100626.53;;;6.21;100.00
12991;BME280;6560;57.692;11.958;2022-12-07T12:54:31;100593.31;;;6.79;100.00
12991;BME280;6560;57.692;11.958;2022-12-07T12:59:25;100499.19;;;6.22;100.00
12991;BME280;6560;57.692;11.958;2022-12-07T13:04:49;100626.66;;;7.31;100.00
12991;BME280;6560;57.692;11.958;2022-12-07T13:15:42;100593.13;;;6.48;100.00
12991;BME280;6560;57.692;11.958;2022-12-07T13:26:22;100620.19;;;7.78;100.00
12991;BME280;6560;57.692;11.958;2022-12-07T13:28:51;100619.22;;;6.66;100.00
12991;BME280;6560;57.692;11.958;2022-12-07T13:34:05;100640.94;;;6.16;100.00
12991;BME280;6560;57.692;11.958;2022-12-07T13:36:49;100621.97;;;6.00;100.00
12991;BME280;6560;57.692;11.958;2022-12-07T13:39:21;100643.94;;;5.65;100.00
12991;BME280;6560;57.692;11.958;2022-12-07T13:41:58;100633.84;;;5.40;100.00
12991;BME280;6560;57.692;11.958;2022-12-07T13:44:26;100638.16;;;5.58;100.00
12991;BME280;6560;57.692;11.958;2022-12-07T13:47:25;100644.41;;;5.50;100.00
12991;BME280;6560;57.692;11.958;2022-12-07T13:49:56;100612.78;;;5.76;100.00
12991;BME280;6560;57.692;11.958;2022-12-07T13:52:24;100622.13;;;6.02;100.00
12991;BME280;6560;57.692;11.958;2022-12-07T13:57:33;100556.19;;;5.20;100.00
12991;BME280;6560;57.692;11.958;2022-12-07T14:00:01;100634.22;;;5.07;100.00
12991;BME280;6560;57.692;11.958;2022-12-07T14:02:30;100628.75;;;4.96;100.00
12991;BME280;6560;57.692;11.958;2022-12-07T14:05:10;100631.94;;;4.74;100.00
12991;BME280;6560;57.692;11.958;2022-12-07T14:08:33;100620.41;;;5.00;100.00
12991;BME280;6560;57.692;11.958;2022-12-07T14:10:38;100459.81;;;3.85;100.00
12991;BME280;6560;57.692;11.958;2022-12-07T14:13:34;100623.69;;;5.43;100.00
12991;BME280;6560;57.692;11.958;2022-12-07T14:16:01;100633.63;;;5.47;100.00
12991;BME280;6560;57.692;11.958;2022-12-07T14:18:38;100597.06;;;5.01;100.00
12991;BME280;6560;57.692;11.958;2022-12-07T14:23:37;100584.78;;;5.19;100.00
12991;BME280;6560;57.692;11.958;2022-12-07T14:26:07;100521.50;;;4.94;100.00
12991;BME280;6560;57.692;11.958;2022-12-07T14:28:36;100627.28;;;4.80;100.00
12991;BME280;6560;57.692;11.958;2022-12-07T14:31:03;100513.38;;;4.45;100.00
12991;BME280;6560;57.692;11.958;2022-12-07T14:33:33;100577.09;;;4.74;100.00
12991;BME280;6560;57.692;11.958;2022-12-07T14:35:59;100490.75;;;4.27;100.00
12991;BME280;6560;57.692;11.958;2022-12-07T14:38:25;100604.66;;;4.90;100.00
12991;BME280;6560;57.692;11.958;2022-12-07T14:40:52;100608.75;;;5.05;100.00
12991;BME280;6560;57.692;11.958;2022-12-07T14:43:18;100559.56;;;5.01;100.00
12991;BME280;6560;57.692;11.958;2022-12-07T14:45:45;100604.75;;;5.00;100.00
12991;BME280;6560;57.692;11.958;2022-12-07T14:48:12;100584.28;;;4.86;100.00
12991;BME280;6560;57.692;11.958;2022-12-07T14:50:43;100580.59;;;4.84;100.00
12991;BME280;6560;57.692;11.958;2022-12-07T14:53:14;100598.94;;;4.94;100.00
12991;BME280;6560;57.692;11.958;2022-12-07T14:55:40;100609.13;;;5.18;100.00
12991;BME280;6560;57.692;11.958;2022-12-07T14:58:17;100518.72;;;4.47;100.00
12991;BME280;6560;57.692;11.958;2022-12-07T15:00:44;100504.47;;;4.16;100.00
12991;BME280;6560;57.692;11.958;2022-12-07T15:03:10;100608.16;;;4.71;100.00
12991;BME280;6560;57.692;11.958;2022-12-07T15:05:36;100497.47;;;3.97;100.00
12991;BME280;6560;57.692;11.958;2022-12-07T15:08:02;100497.06;;;4.48;100.00
12991;BME280;6560;57.692;11.958;2022-12-07T15:10:30;100600.34;;;4.63;100.00
12991;BME280;6560;57.692;11.958;2022-12-07T15:12:58;100590.69;;;4.53;100.00
12991;BME280;6560;57.692;11.958;2022-12-07T15:15:44;100492.00;;;3.86;100.00
12991;BME280;6560;57.692;11.958;2022-12-07T15:18:09;100587.84;;;5.42;100.00
12991;BME280;6560;57.692;11.958;2022-12-07T15:20:35;100622.84;;;4.79;100.00
12991;BME280;6560;57.692;11.958;2022-12-07T15:23:00;100596.97;;;4.64;100.00
12991;BME280;6560;57.692;11.958;2022-12-07T15:25:26;100592.56;;;4.81;100.00
12991;BME280;6560;57.692;11.958;2022-12-07T15:27:51;100484.88;;;4.38;100.00
12991;BME280;6560;57.692;11.958;2022-12-07T15:30:17;100579.94;;;4.86;100.00
12991;BME280;6560;57.692;11.958;2022-12-07T15:32:42;100524.22;;;4.58;100.00